^^
TXWeather Station Historical Data
Daily Summary for August 04, 2020 Units:  Both    English   Metric
Daily Weekly Monthly Yearly Custom
  High: Low: Average:
Temperature: 97.0 °F /  36.1 °C 79.0 °F /  26.1 °C 86.1 °F /  30.1 °C
Dew Point: 80.0 °F /  26.7 °C 72.0 °F /  22.2 °C 75.2 °F /  24 °C
Humidity: 83% 53% 71%
Wind Speed: 13mph /  20.9km/h - 5.1mph /  8.2km/h
Wind Gust: 13mph /  20.9km/h - -
Wind- - SSW
Pressure: 30.1 in /  1019.2 hPa 30.0 in /  1015.8 hPa -
Precipitation: 0.000 in /  0 mm    
Historical Graphs
 
 
Tabular Data for August 04, 2020
Time Temperature Dew Point Pressure Wind Wind Speed Wind Gust Humidity Rainfall Rate (Hourly) solar
00:04 84.0 °F /  28.9 °C 75.0 °F /  23.9 °C 30.0in /  1015.8hPa SSW 3mph /  4.8km/h 4mph /  6.4km/h 76% 0.000in /  0mm 0.00 W/m2
00:09 83.0 °F /  28.3 °C 75.0 °F /  23.9 °C 30.0in /  1015.8hPa SSW 4mph /  6.4km/h 4mph /  6.4km/h 76% 0.000in /  0mm 0.00 W/m2
00:14 83.0 °F /  28.3 °C 75.0 °F /  23.9 °C 30.0in /  1015.8hPa SW 5mph /  8km/h 7mph /  11.3km/h 76% 0.000in /  0mm 0.00 W/m2
00:19 83.0 °F /  28.3 °C 75.0 °F /  23.9 °C 30.0in /  1015.8hPa SW 4mph /  6.4km/h 6mph /  9.7km/h 76% 0.000in /  0mm 0.00 W/m2
00:24 83.0 °F /  28.3 °C 74.0 °F /  23.3 °C 30.0in /  1015.8hPa SSW 5mph /  8km/h 5mph /  8km/h 75% 0.000in /  0mm 0.00 W/m2
00:29 83.0 °F /  28.3 °C 75.0 °F /  23.9 °C 30.0in /  1015.8hPa SSW 5mph /  8km/h 5mph /  8km/h 76% 0.000in /  0mm 0.00 W/m2
00:34 83.0 °F /  28.3 °C 74.0 °F /  23.3 °C 30.0in /  1015.8hPa SW 4mph /  6.4km/h 4mph /  6.4km/h 76% 0.000in /  0mm 0.00 W/m2
00:39 82.0 °F /  27.8 °C 74.0 °F /  23.3 °C 30.0in /  1015.8hPa South 4mph /  6.4km/h 4mph /  6.4km/h 77% 0.000in /  0mm 0.00 W/m2
00:44 82.0 °F /  27.8 °C 74.0 °F /  23.3 °C 30.0in /  1015.8hPa South 4mph /  6.4km/h 4mph /  6.4km/h 77% 0.000in /  0mm 0.00 W/m2
00:49 82.0 °F /  27.8 °C 74.0 °F /  23.3 °C 30.0in /  1015.8hPa SSW 3mph /  4.8km/h 3mph /  4.8km/h 78% 0.000in /  0mm 0.00 W/m2
00:54 82.0 °F /  27.8 °C 74.0 °F /  23.3 °C 30.0in /  1015.8hPa South 2mph /  3.2km/h 3mph /  4.8km/h 78% 0.000in /  0mm 0.00 W/m2
00:59 82.0 °F /  27.8 °C 74.0 °F /  23.3 °C 30.0in /  1015.8hPa South 2mph /  3.2km/h 2mph /  3.2km/h 78% 0.000in /  0mm 0.00 W/m2
01:04 82.0 °F /  27.8 °C 74.0 °F /  23.3 °C 30.0in /  1015.8hPa SSW 2mph /  3.2km/h 4mph /  6.4km/h 78% 0.000in /  0mm 0.00 W/m2
01:09 82.0 °F /  27.8 °C 74.0 °F /  23.3 °C 30.0in /  1015.8hPa SW 2mph /  3.2km/h 3mph /  4.8km/h 77% 0.000in /  0mm 0.00 W/m2
01:14 82.0 °F /  27.8 °C 74.0 °F /  23.3 °C 30.0in /  1015.8hPa SW 2mph /  3.2km/h 2mph /  3.2km/h 78% 0.000in /  0mm 0.00 W/m2
01:19 81.0 °F /  27.2 °C 74.0 °F /  23.3 °C 30.0in /  1015.8hPa SW 3mph /  4.8km/h 3mph /  4.8km/h 78% 0.000in /  0mm 0.00 W/m2
01:24 81.0 °F /  27.2 °C 74.0 °F /  23.3 °C 30.0in /  1015.8hPa SW 2mph /  3.2km/h 2mph /  3.2km/h 79% 0.000in /  0mm 0.00 W/m2
01:29 81.0 °F /  27.2 °C 74.0 °F /  23.3 °C 30.0in /  1015.8hPa SW 2mph /  3.2km/h 3mph /  4.8km/h 79% 0.000in /  0mm 0.00 W/m2
01:34 81.0 °F /  27.2 °C 74.0 °F /  23.3 °C 30.0in /  1015.8hPa SW 2mph /  3.2km/h 3mph /  4.8km/h 79% 0.000in /  0mm 0.00 W/m2
01:39 81.0 °F /  27.2 °C 74.0 °F /  23.3 °C 30.0in /  1015.8hPa WSW 3mph /  4.8km/h 3mph /  4.8km/h 79% 0.000in /  0mm 0.00 W/m2
01:44 81.0 °F /  27.2 °C 74.0 °F /  23.3 °C 30.0in /  1015.8hPa SW 3mph /  4.8km/h 3mph /  4.8km/h 80% 0.000in /  0mm 0.00 W/m2
01:49 81.0 °F /  27.2 °C 74.0 °F /  23.3 °C 30.0in /  1015.8hPa SW 3mph /  4.8km/h 3mph /  4.8km/h 80% 0.000in /  0mm 0.00 W/m2
01:54 81.0 °F /  27.2 °C 75.0 °F /  23.9 °C 30.0in /  1015.8hPa SSW 2mph /  3.2km/h 3mph /  4.8km/h 81% 0.000in /  0mm 0.00 W/m2
01:59 81.0 °F /  27.2 °C 75.0 °F /  23.9 °C 30.0in /  1015.8hPa SSW 4mph /  6.4km/h 5mph /  8km/h 81% 0.000in /  0mm 0.00 W/m2
02:04 81.0 °F /  27.2 °C 75.0 °F /  23.9 °C 30.0in /  1015.8hPa SSW 5mph /  8km/h 5mph /  8km/h 81% 0.000in /  0mm 0.00 W/m2
02:09 81.0 °F /  27.2 °C 75.0 °F /  23.9 °C 30.0in /  1015.8hPa SW 5mph /  8km/h 5mph /  8km/h 81% 0.000in /  0mm 0.00 W/m2
02:14 81.0 °F /  27.2 °C 75.0 °F /  23.9 °C 30.0in /  1015.8hPa SSW 3mph /  4.8km/h 5mph /  8km/h 81% 0.000in /  0mm 0.00 W/m2
02:19 81.0 °F /  27.2 °C 75.0 °F /  23.9 °C 30.0in /  1015.8hPa SW 4mph /  6.4km/h 7mph /  11.3km/h 81% 0.000in /  0mm 0.00 W/m2
02:24 81.0 °F /  27.2 °C 75.0 °F /  23.9 °C 30.0in /  1015.8hPa SSW 4mph /  6.4km/h 4mph /  6.4km/h 81% 0.000in /  0mm 0.00 W/m2
02:29 81.0 °F /  27.2 °C 75.0 °F /  23.9 °C 30.0in /  1015.8hPa SSW 3mph /  4.8km/h 3mph /  4.8km/h 81% 0.000in /  0mm 0.00 W/m2
02:34 81.0 °F /  27.2 °C 75.0 °F /  23.9 °C 30.0in /  1015.8hPa SSW 6mph /  9.7km/h 6mph /  9.7km/h 81% 0.000in /  0mm 0.00 W/m2
02:39 81.0 °F /  27.2 °C 75.0 °F /  23.9 °C 30.0in /  1015.8hPa SW 3mph /  4.8km/h 5mph /  8km/h 81% 0.000in /  0mm 0.00 W/m2
02:44 81.0 °F /  27.2 °C 75.0 °F /  23.9 °C 30.0in /  1015.8hPa SSW 4mph /  6.4km/h 6mph /  9.7km/h 81% 0.000in /  0mm 0.00 W/m2
02:49 81.0 °F /  27.2 °C 75.0 °F /  23.9 °C 30.0in /  1015.8hPa SW 5mph /  8km/h 6mph /  9.7km/h 81% 0.000in /  0mm 0.00 W/m2
02:54 81.0 °F /  27.2 °C 75.0 °F /  23.9 °C 30.0in /  1015.8hPa SSW 3mph /  4.8km/h 5mph /  8km/h 81% 0.000in /  0mm 0.00 W/m2
02:59 81.0 °F /  27.2 °C 75.0 °F /  23.9 °C 30.0in /  1015.8hPa SSW 5mph /  8km/h 7mph /  11.3km/h 82% 0.000in /  0mm 0.00 W/m2
03:04 81.0 °F /  27.2 °C 75.0 °F /  23.9 °C 30.0in /  1015.8hPa SSW 4mph /  6.4km/h 7mph /  11.3km/h 82% 0.000in /  0mm 0.00 W/m2
03:09 81.0 °F /  27.2 °C 75.0 °F /  23.9 °C 30.0in /  1015.8hPa SSW 5mph /  8km/h 5mph /  8km/h 82% 0.000in /  0mm 0.00 W/m2
03:14 81.0 °F /  27.2 °C 75.0 °F /  23.9 °C 30.0in /  1015.8hPa SSW 5mph /  8km/h 5mph /  8km/h 82% 0.000in /  0mm 0.00 W/m2
03:19 81.0 °F /  27.2 °C 75.0 °F /  23.9 °C 30.0in /  1015.8hPa SSW 4mph /  6.4km/h 4mph /  6.4km/h 82% 0.000in /  0mm 0.00 W/m2
03:24 81.0 °F /  27.2 °C 75.0 °F /  23.9 °C 30.0in /  1015.8hPa South 6mph /  9.7km/h 6mph /  9.7km/h 83% 0.000in /  0mm 0.00 W/m2
03:29 81.0 °F /  27.2 °C 75.0 °F /  23.9 °C 30.0in /  1015.8hPa SW 4mph /  6.4km/h 6mph /  9.7km/h 83% 0.000in /  0mm 0.00 W/m2
03:34 81.0 °F /  27.2 °C 75.0 °F /  23.9 °C 30.0in /  1015.8hPa SSW 4mph /  6.4km/h 5mph /  8km/h 83% 0.000in /  0mm 0.00 W/m2
03:39 81.0 °F /  27.2 °C 75.0 °F /  23.9 °C 30.0in /  1015.8hPa SSW 6mph /  9.7km/h 6mph /  9.7km/h 82% 0.000in /  0mm 0.00 W/m2
03:44 81.0 °F /  27.2 °C 75.0 °F /  23.9 °C 30.0in /  1015.8hPa SSW 5mph /  8km/h 6mph /  9.7km/h 82% 0.000in /  0mm 0.00 W/m2
03:49 81.0 °F /  27.2 °C 75.0 °F /  23.9 °C 30.0in /  1015.8hPa SSW 4mph /  6.4km/h 5mph /  8km/h 82% 0.000in /  0mm 0.00 W/m2
03:54 81.0 °F /  27.2 °C 75.0 °F /  23.9 °C 30.0in /  1015.8hPa South 3mph /  4.8km/h 4mph /  6.4km/h 82% 0.000in /  0mm 0.00 W/m2
03:59 81.0 °F /  27.2 °C 75.0 °F /  23.9 °C 30.0in /  1015.8hPa SSW 5mph /  8km/h 5mph /  8km/h 82% 0.000in /  0mm 0.00 W/m2
04:04 81.0 °F /  27.2 °C 75.0 °F /  23.9 °C 30.0in /  1015.8hPa SSW 3mph /  4.8km/h 5mph /  8km/h 82% 0.000in /  0mm 0.00 W/m2
04:09 81.0 °F /  27.2 °C 75.0 °F /  23.9 °C 30.0in /  1015.8hPa SW 5mph /  8km/h 6mph /  9.7km/h 82% 0.000in /  0mm 0.00 W/m2
04:14 81.0 °F /  27.2 °C 75.0 °F /  23.9 °C 30.0in /  1015.8hPa SW 6mph /  9.7km/h 8mph /  12.9km/h 82% 0.000in /  0mm 0.00 W/m2
04:19 81.0 °F /  27.2 °C 75.0 °F /  23.9 °C 30.0in /  1015.8hPa SW 3mph /  4.8km/h 3mph /  4.8km/h 82% 0.000in /  0mm 0.00 W/m2
04:24 81.0 °F /  27.2 °C 75.0 °F /  23.9 °C 30.0in /  1015.8hPa South 4mph /  6.4km/h 4mph /  6.4km/h 82% 0.000in /  0mm 0.00 W/m2
04:29 81.0 °F /  27.2 °C 75.0 °F /  23.9 °C 30.0in /  1015.8hPa South 3mph /  4.8km/h 4mph /  6.4km/h 82% 0.000in /  0mm 0.00 W/m2
04:34 81.0 °F /  27.2 °C 75.0 °F /  23.9 °C 30.0in /  1015.8hPa SW 5mph /  8km/h 5mph /  8km/h 83% 0.000in /  0mm 0.00 W/m2
04:39 81.0 °F /  27.2 °C 75.0 °F /  23.9 °C 30.0in /  1015.8hPa SSW 4mph /  6.4km/h 5mph /  8km/h 83% 0.000in /  0mm 0.00 W/m2
04:44 81.0 °F /  27.2 °C 75.0 °F /  23.9 °C 30.0in /  1015.8hPa South 4mph /  6.4km/h 5mph /  8km/h 82% 0.000in /  0mm 0.00 W/m2
04:49 81.0 °F /  27.2 °C 75.0 °F /  23.9 °C 30.0in /  1015.8hPa SSW 2mph /  3.2km/h 3mph /  4.8km/h 82% 0.000in /  0mm 0.00 W/m2
04:54 81.0 °F /  27.2 °C 75.0 °F /  23.9 °C 30.0in /  1015.8hPa SW 4mph /  6.4km/h 4mph /  6.4km/h 82% 0.000in /  0mm 0.00 W/m2
04:59 81.0 °F /  27.2 °C 75.0 °F /  23.9 °C 30.0in /  1015.8hPa SSW 2mph /  3.2km/h 5mph /  8km/h 82% 0.000in /  0mm 0.00 W/m2
05:04 81.0 °F /  27.2 °C 75.0 °F /  23.9 °C 30.0in /  1015.8hPa SSW 3mph /  4.8km/h 5mph /  8km/h 82% 0.000in /  0mm 0.00 W/m2
05:09 80.0 °F /  26.7 °C 75.0 °F /  23.9 °C 30.0in /  1015.8hPa SSW 2mph /  3.2km/h 4mph /  6.4km/h 83% 0.000in /  0mm 0.00 W/m2
05:14 80.0 °F /  26.7 °C 75.0 °F /  23.9 °C 30.0in /  1015.8hPa SW 3mph /  4.8km/h 4mph /  6.4km/h 83% 0.000in /  0mm 0.00 W/m2
05:19 80.0 °F /  26.7 °C 75.0 °F /  23.9 °C 30.0in /  1015.8hPa SSW 2mph /  3.2km/h 3mph /  4.8km/h 83% 0.000in /  0mm 0.00 W/m2
05:24 80.0 °F /  26.7 °C 75.0 °F /  23.9 °C 30.0in /  1015.8hPa SW 4mph /  6.4km/h 4mph /  6.4km/h 83% 0.000in /  0mm 0.00 W/m2
05:29 80.0 °F /  26.7 °C 75.0 °F /  23.9 °C 30.0in /  1015.8hPa SSW 4mph /  6.4km/h 4mph /  6.4km/h 83% 0.000in /  0mm 0.00 W/m2
05:34 80.0 °F /  26.7 °C 75.0 °F /  23.9 °C 30.0in /  1015.8hPa SW 4mph /  6.4km/h 5mph /  8km/h 83% 0.000in /  0mm 0.00 W/m2
05:39 80.0 °F /  26.7 °C 75.0 °F /  23.9 °C 30.0in /  1015.8hPa SW 3mph /  4.8km/h 4mph /  6.4km/h 83% 0.000in /  0mm 0.00 W/m2
05:44 80.0 °F /  26.7 °C 75.0 °F /  23.9 °C 30.0in /  1015.8hPa SW 3mph /  4.8km/h 4mph /  6.4km/h 83% 0.000in /  0mm 0.00 W/m2
05:49 80.0 °F /  26.7 °C 74.0 °F /  23.3 °C 30.0in /  1015.8hPa SW 4mph /  6.4km/h 5mph /  8km/h 82% 0.000in /  0mm 0.00 W/m2
05:54 80.0 °F /  26.7 °C 74.0 °F /  23.3 °C 30.0in /  1015.8hPa SW 4mph /  6.4km/h 5mph /  8km/h 82% 0.000in /  0mm 0.00 W/m2
05:59 80.0 °F /  26.7 °C 74.0 °F /  23.3 °C 30.0in /  1015.8hPa SW 4mph /  6.4km/h 4mph /  6.4km/h 82% 0.000in /  0mm 0.00 W/m2
06:04 80.0 °F /  26.7 °C 74.0 °F /  23.3 °C 30.0in /  1015.8hPa WSW 3mph /  4.8km/h 3mph /  4.8km/h 82% 0.000in /  0mm 0.00 W/m2
06:09 80.0 °F /  26.7 °C 74.0 °F /  23.3 °C 30.0in /  1015.8hPa SW 4mph /  6.4km/h 4mph /  6.4km/h 82% 0.000in /  0mm 0.00 W/m2
06:14 80.0 °F /  26.7 °C 74.0 °F /  23.3 °C 30.0in /  1015.8hPa SW 4mph /  6.4km/h 5mph /  8km/h 82% 0.000in /  0mm 0.00 W/m2
06:19 80.0 °F /  26.7 °C 74.0 °F /  23.3 °C 30.0in /  1015.8hPa WSW 5mph /  8km/h 5mph /  8km/h 82% 0.000in /  0mm 0.00 W/m2
06:24 80.0 °F /  26.7 °C 74.0 °F /  23.3 °C 30.0in /  1015.8hPa West 2mph /  3.2km/h 3mph /  4.8km/h 81% 0.000in /  0mm 0.00 W/m2
06:29 80.0 °F /  26.7 °C 74.0 °F /  23.3 °C 30.0in /  1015.8hPa WSW 4mph /  6.4km/h 4mph /  6.4km/h 81% 0.000in /  0mm 0.00 W/m2
06:34 80.0 °F /  26.7 °C 74.0 °F /  23.3 °C 30.0in /  1015.8hPa WSW 4mph /  6.4km/h 4mph /  6.4km/h 81% 0.000in /  0mm 0.00 W/m2
06:39 80.0 °F /  26.7 °C 74.0 °F /  23.3 °C 30.0in /  1015.8hPa WSW 3mph /  4.8km/h 3mph /  4.8km/h 81% 0.000in /  0mm 0.00 W/m2
06:44 80.0 °F /  26.7 °C 73.0 °F /  22.8 °C 30.0in /  1015.8hPa WSW 3mph /  4.8km/h 3mph /  4.8km/h 80% 0.000in /  0mm 0.00 W/m2
06:49 80.0 °F /  26.7 °C 73.0 °F /  22.8 °C 30.0in /  1015.8hPa West 4mph /  6.4km/h 4mph /  6.4km/h 81% 0.000in /  0mm 0.00 W/m2
06:54 80.0 °F /  26.7 °C 73.0 °F /  22.8 °C 30.0in /  1015.8hPa West 4mph /  6.4km/h 5mph /  8km/h 81% 0.000in /  0mm 5.00 W/m2
06:59 80.0 °F /  26.7 °C 73.0 °F /  22.8 °C 30.0in /  1015.8hPa West 2mph /  3.2km/h 2mph /  3.2km/h 81% 0.000in /  0mm 9.00 W/m2
07:04 79.0 °F /  26.1 °C 73.0 °F /  22.8 °C 30.0in /  1015.8hPa West 2mph /  3.2km/h 3mph /  4.8km/h 82% 0.000in /  0mm 12.00 W/m2
07:09 79.0 °F /  26.1 °C 73.0 °F /  22.8 °C 30.0in /  1015.8hPa WSW 3mph /  4.8km/h 3mph /  4.8km/h 82% 0.000in /  0mm 14.00 W/m2
07:14 79.0 °F /  26.1 °C 73.0 °F /  22.8 °C 30.0in /  1015.8hPa WSW 4mph /  6.4km/h 4mph /  6.4km/h 82% 0.000in /  0mm 19.00 W/m2
07:19 79.0 °F /  26.1 °C 73.0 °F /  22.8 °C 30.0in /  1015.8hPa WSW 4mph /  6.4km/h 4mph /  6.4km/h 82% 0.000in /  0mm 26.00 W/m2
07:24 79.0 °F /  26.1 °C 73.0 °F /  22.8 °C 30.0in /  1015.8hPa WSW 3mph /  4.8km/h 3mph /  4.8km/h 82% 0.000in /  0mm 32.00 W/m2
07:29 79.0 °F /  26.1 °C 73.0 °F /  22.8 °C 30.0in /  1015.8hPa West 4mph /  6.4km/h 4mph /  6.4km/h 82% 0.000in /  0mm 39.00 W/m2
07:34 79.0 °F /  26.1 °C 73.0 °F /  22.8 °C 30.0in /  1015.8hPa West 3mph /  4.8km/h 3mph /  4.8km/h 82% 0.000in /  0mm 47.00 W/m2
07:39 79.0 °F /  26.1 °C 73.0 °F /  22.8 °C 30.0in /  1015.8hPa West 4mph /  6.4km/h 4mph /  6.4km/h 82% 0.000in /  0mm 54.00 W/m2
07:44 79.0 °F /  26.1 °C 73.0 °F /  22.8 °C 30.0in /  1015.8hPa WSW 3mph /  4.8km/h 4mph /  6.4km/h 82% 0.000in /  0mm 56.00 W/m2
07:49 79.0 °F /  26.1 °C 73.0 °F /  22.8 °C 30.0in /  1015.8hPa West 7mph /  11.3km/h 7mph /  11.3km/h 82% 0.000in /  0mm 58.00 W/m2
07:54 79.0 °F /  26.1 °C 73.0 °F /  22.8 °C 30.0in /  1015.8hPa West 4mph /  6.4km/h 7mph /  11.3km/h 82% 0.000in /  0mm 56.00 W/m2
07:59 79.0 °F /  26.1 °C 73.0 °F /  22.8 °C 30.0in /  1015.8hPa WSW 3mph /  4.8km/h 4mph /  6.4km/h 82% 0.000in /  0mm 56.00 W/m2
08:04 79.0 °F /  26.1 °C 73.0 °F /  22.8 °C 30.0in /  1015.8hPa WSW 3mph /  4.8km/h 4mph /  6.4km/h 82% 0.000in /  0mm 53.00 W/m2
08:09 80.0 °F /  26.7 °C 74.0 °F /  23.3 °C 30.0in /  1015.8hPa WSW 3mph /  4.8km/h 3mph /  4.8km/h 82% 0.000in /  0mm 51.00 W/m2
08:14 80.0 °F /  26.7 °C 74.0 °F /  23.3 °C 30.0in /  1015.8hPa WSW 2mph /  3.2km/h 2mph /  3.2km/h 82% 0.000in /  0mm 70.00 W/m2
08:19 80.0 °F /  26.7 °C 74.0 °F /  23.3 °C 30.1in /  1019.2hPa West 2mph /  3.2km/h 3mph /  4.8km/h 82% 0.000in /  0mm 81.00 W/m2
08:24 80.0 °F /  26.7 °C 74.0 °F /  23.3 °C 30.0in /  1015.8hPa WSW 3mph /  4.8km/h 3mph /  4.8km/h 81% 0.000in /  0mm 84.00 W/m2
08:29 80.0 °F /  26.7 °C 74.0 °F /  23.3 °C 30.1in /  1019.2hPa WSW 2mph /  3.2km/h 3mph /  4.8km/h 81% 0.000in /  0mm 79.00 W/m2
08:34 80.0 °F /  26.7 °C 74.0 °F /  23.3 °C 30.1in /  1019.2hPa WSW 3mph /  4.8km/h 3mph /  4.8km/h 82% 0.000in /  0mm 93.00 W/m2
08:39 80.0 °F /  26.7 °C 74.0 °F /  23.3 °C 30.1in /  1019.2hPa WSW 3mph /  4.8km/h 3mph /  4.8km/h 81% 0.000in /  0mm 132.00 W/m2
08:44 80.0 °F /  26.7 °C 74.0 °F /  23.3 °C 30.1in /  1019.2hPa WSW 4mph /  6.4km/h 4mph /  6.4km/h 81% 0.000in /  0mm 149.00 W/m2
08:49 81.0 °F /  27.2 °C 74.0 °F /  23.3 °C 30.1in /  1019.2hPa WSW 3mph /  4.8km/h 3mph /  4.8km/h 81% 0.000in /  0mm 274.00 W/m2
08:54 81.0 °F /  27.2 °C 74.0 °F /  23.3 °C 30.1in /  1019.2hPa West 3mph /  4.8km/h 6mph /  9.7km/h 79% 0.000in /  0mm 390.00 W/m2
08:59 82.0 °F /  27.8 °C 75.0 °F /  23.9 °C 30.1in /  1019.2hPa WSW 4mph /  6.4km/h 4mph /  6.4km/h 79% 0.000in /  0mm 420.00 W/m2
09:04 83.0 °F /  28.3 °C 74.0 °F /  23.3 °C 30.1in /  1019.2hPa WSW 3mph /  4.8km/h 4mph /  6.4km/h 77% 0.000in /  0mm 420.00 W/m2
09:09 83.0 °F /  28.3 °C 75.0 °F /  23.9 °C 30.1in /  1019.2hPa SW 5mph /  8km/h 6mph /  9.7km/h 77% 0.000in /  0mm 316.00 W/m2
09:14 83.0 °F /  28.3 °C 73.0 °F /  22.8 °C 30.1in /  1019.2hPa WSW 4mph /  6.4km/h 6mph /  9.7km/h 74% 0.000in /  0mm 153.00 W/m2
09:19 82.0 °F /  27.8 °C 73.0 °F /  22.8 °C 30.1in /  1019.2hPa WSW 4mph /  6.4km/h 7mph /  11.3km/h 73% 0.000in /  0mm 162.00 W/m2
09:24 83.0 °F /  28.3 °C 73.0 °F /  22.8 °C 30.1in /  1019.2hPa WSW 4mph /  6.4km/h 4mph /  6.4km/h 74% 0.000in /  0mm 181.00 W/m2
09:29 83.0 °F /  28.3 °C 74.0 °F /  23.3 °C 30.1in /  1019.2hPa West 6mph /  9.7km/h 6mph /  9.7km/h 75% 0.000in /  0mm 183.00 W/m2
09:34 84.0 °F /  28.9 °C 75.0 °F /  23.9 °C 30.1in /  1019.2hPa West 3mph /  4.8km/h 4mph /  6.4km/h 75% 0.000in /  0mm 223.00 W/m2
09:39 84.0 °F /  28.9 °C 74.0 °F /  23.3 °C 30.1in /  1019.2hPa NW 4mph /  6.4km/h 4mph /  6.4km/h 72% 0.000in /  0mm 343.00 W/m2
09:44 84.0 °F /  28.9 °C 74.0 °F /  23.3 °C 30.1in /  1019.2hPa WSW 6mph /  9.7km/h 6mph /  9.7km/h 73% 0.000in /  0mm 545.00 W/m2
09:49 85.0 °F /  29.4 °C 75.0 °F /  23.9 °C 30.1in /  1019.2hPa WSW 6mph /  9.7km/h 7mph /  11.3km/h 72% 0.000in /  0mm 541.00 W/m2
09:54 85.0 °F /  29.4 °C 75.0 °F /  23.9 °C 30.1in /  1019.2hPa WSW 4mph /  6.4km/h 4mph /  6.4km/h 73% 0.000in /  0mm 564.00 W/m2
09:59 86.0 °F /  30 °C 75.0 °F /  23.9 °C 30.1in /  1019.2hPa West 4mph /  6.4km/h 5mph /  8km/h 71% 0.000in /  0mm 584.00 W/m2
10:04 86.0 °F /  30 °C 76.0 °F /  24.4 °C 30.1in /  1019.2hPa West 4mph /  6.4km/h 7mph /  11.3km/h 72% 0.000in /  0mm 608.00 W/m2
10:09 86.0 °F /  30 °C 76.0 °F /  24.4 °C 30.1in /  1019.2hPa WSW 5mph /  8km/h 5mph /  8km/h 72% 0.000in /  0mm 619.00 W/m2
10:14 87.0 °F /  30.6 °C 76.0 °F /  24.4 °C 30.1in /  1019.2hPa WSW 5mph /  8km/h 6mph /  9.7km/h 70% 0.000in /  0mm 622.00 W/m2
10:19 87.0 °F /  30.6 °C 75.0 °F /  23.9 °C 30.1in /  1019.2hPa WSW 9mph /  14.5km/h 9mph /  14.5km/h 69% 0.000in /  0mm 631.00 W/m2
10:24 87.0 °F /  30.6 °C 75.0 °F /  23.9 °C 30.1in /  1019.2hPa WSW 10mph /  16.1km/h 10mph /  16.1km/h 66% 0.000in /  0mm 638.00 W/m2
10:29 87.0 °F /  30.6 °C 75.0 °F /  23.9 °C 30.1in /  1019.2hPa West 9mph /  14.5km/h 9mph /  14.5km/h 66% 0.000in /  0mm 638.00 W/m2
10:34 88.0 °F /  31.1 °C 76.0 °F /  24.4 °C 30.1in /  1019.2hPa SW 5mph /  8km/h 6mph /  9.7km/h 68% 0.000in /  0mm 663.00 W/m2
10:39 88.0 °F /  31.1 °C 76.0 °F /  24.4 °C 30.1in /  1019.2hPa SW 8mph /  12.9km/h 8mph /  12.9km/h 67% 0.000in /  0mm 575.00 W/m2
10:44 88.0 °F /  31.1 °C 74.0 °F /  23.3 °C 30.1in /  1019.2hPa WSW 8mph /  12.9km/h 8mph /  12.9km/h 64% 0.000in /  0mm 691.00 W/m2
10:49 88.0 °F /  31.1 °C 74.0 °F /  23.3 °C 30.1in /  1019.2hPa West 6mph /  9.7km/h 8mph /  12.9km/h 64% 0.000in /  0mm 696.00 W/m2
10:54 89.0 °F /  31.7 °C 75.0 °F /  23.9 °C 30.1in /  1019.2hPa WSW 8mph /  12.9km/h 8mph /  12.9km/h 64% 0.000in /  0mm 696.00 W/m2
10:59 89.0 °F /  31.7 °C 75.0 °F /  23.9 °C 30.1in /  1019.2hPa WSW 8mph /  12.9km/h 8mph /  12.9km/h 64% 0.000in /  0mm 701.00 W/m2
11:04 89.0 °F /  31.7 °C 75.0 °F /  23.9 °C 30.1in /  1019.2hPa West 6mph /  9.7km/h 7mph /  11.3km/h 63% 0.000in /  0mm 742.00 W/m2
11:09 89.0 °F /  31.7 °C 75.0 °F /  23.9 °C 30.1in /  1019.2hPa West 7mph /  11.3km/h 7mph /  11.3km/h 62% 0.000in /  0mm 758.00 W/m2
11:14 90.0 °F /  32.2 °C 77.0 °F /  25 °C 30.1in /  1019.2hPa SW 5mph /  8km/h 7mph /  11.3km/h 66% 0.000in /  0mm 761.00 W/m2
11:19 91.0 °F /  32.8 °C 76.0 °F /  24.4 °C 30.1in /  1019.2hPa SW 3mph /  4.8km/h 5mph /  8km/h 64% 0.000in /  0mm 775.00 W/m2
11:24 91.0 °F /  32.8 °C 77.0 °F /  25 °C 30.1in /  1019.2hPa SSW 6mph /  9.7km/h 6mph /  9.7km/h 65% 0.000in /  0mm 782.00 W/m2
11:29 91.0 °F /  32.8 °C 77.0 °F /  25 °C 30.1in /  1019.2hPa SW 5mph /  8km/h 5mph /  8km/h 64% 0.000in /  0mm 788.00 W/m2
11:34 91.0 °F /  32.8 °C 77.0 °F /  25 °C 30.1in /  1019.2hPa WSW 7mph /  11.3km/h 7mph /  11.3km/h 64% 0.000in /  0mm 803.00 W/m2
11:39 90.0 °F /  32.2 °C 76.0 °F /  24.4 °C 30.1in /  1019.2hPa West 7mph /  11.3km/h 7mph /  11.3km/h 63% 0.000in /  0mm 812.00 W/m2
11:44 91.0 °F /  32.8 °C 78.0 °F /  25.6 °C 30.1in /  1019.2hPa West 4mph /  6.4km/h 6mph /  9.7km/h 65% 0.000in /  0mm 823.00 W/m2
11:49 92.0 °F /  33.3 °C 78.0 °F /  25.6 °C 30.1in /  1019.2hPa SSW 7mph /  11.3km/h 7mph /  11.3km/h 65% 0.000in /  0mm 830.00 W/m2
11:54 91.0 °F /  32.8 °C 78.0 °F /  25.6 °C 30.1in /  1019.2hPa SW 7mph /  11.3km/h 11mph /  17.7km/h 65% 0.000in /  0mm 842.00 W/m2
11:59 92.0 °F /  33.3 °C 77.0 °F /  25 °C 30.1in /  1019.2hPa SW 3mph /  4.8km/h 7mph /  11.3km/h 63% 0.000in /  0mm 849.00 W/m2
12:04 92.0 °F /  33.3 °C 78.0 °F /  25.6 °C 30.1in /  1019.2hPa SW 8mph /  12.9km/h 8mph /  12.9km/h 65% 0.000in /  0mm 854.00 W/m2
12:09 92.0 °F /  33.3 °C 78.0 °F /  25.6 °C 30.1in /  1019.2hPa SSW 5mph /  8km/h 6mph /  9.7km/h 65% 0.000in /  0mm 861.00 W/m2
12:14 92.0 °F /  33.3 °C 78.0 °F /  25.6 °C 30.1in /  1019.2hPa South 5mph /  8km/h 9mph /  14.5km/h 64% 0.000in /  0mm 868.00 W/m2
12:19 92.0 °F /  33.3 °C 78.0 °F /  25.6 °C 30.1in /  1019.2hPa WSW 9mph /  14.5km/h 9mph /  14.5km/h 64% 0.000in /  0mm 882.00 W/m2
12:24 92.0 °F /  33.3 °C 77.0 °F /  25 °C 30.1in /  1019.2hPa West 4mph /  6.4km/h 6mph /  9.7km/h 62% 0.000in /  0mm 886.00 W/m2
12:29 93.0 °F /  33.9 °C 78.0 °F /  25.6 °C 30.1in /  1019.2hPa SW 5mph /  8km/h 6mph /  9.7km/h 63% 0.000in /  0mm 893.00 W/m2
12:34 93.0 °F /  33.9 °C 78.0 °F /  25.6 °C 30.1in /  1019.2hPa SW 8mph /  12.9km/h 8mph /  12.9km/h 62% 0.000in /  0mm 895.00 W/m2
12:39 93.0 °F /  33.9 °C 79.0 °F /  26.1 °C 30.1in /  1019.2hPa SSW 7mph /  11.3km/h 8mph /  12.9km/h 64% 0.000in /  0mm 898.00 W/m2
12:44 93.0 °F /  33.9 °C 79.0 °F /  26.1 °C 30.1in /  1019.2hPa South 7mph /  11.3km/h 8mph /  12.9km/h 64% 0.000in /  0mm 907.00 W/m2
12:49 93.0 °F /  33.9 °C 79.0 °F /  26.1 °C 30.0in /  1015.8hPa SSW 5mph /  8km/h 7mph /  11.3km/h 65% 0.000in /  0mm 914.00 W/m2
12:54 94.0 °F /  34.4 °C 78.0 °F /  25.6 °C 30.1in /  1019.2hPa WSW 6mph /  9.7km/h 8mph /  12.9km/h 61% 0.000in /  0mm 921.00 W/m2
12:59 93.0 °F /  33.9 °C 78.0 °F /  25.6 °C 30.1in /  1019.2hPa West 8mph /  12.9km/h 8mph /  12.9km/h 61% 0.000in /  0mm 921.00 W/m2
13:04 93.0 °F /  33.9 °C 78.0 °F /  25.6 °C 30.1in /  1019.2hPa WNW 4mph /  6.4km/h 4mph /  6.4km/h 61% 0.000in /  0mm 944.00 W/m2
13:09 93.0 °F /  33.9 °C 77.0 °F /  25 °C 30.1in /  1019.2hPa West 8mph /  12.9km/h 8mph /  12.9km/h 59% 0.000in /  0mm 962.00 W/m2
13:14 93.0 °F /  33.9 °C 78.0 °F /  25.6 °C 30.1in /  1019.2hPa WSW 9mph /  14.5km/h 11mph /  17.7km/h 62% 0.000in /  0mm 977.00 W/m2
13:19 94.0 °F /  34.4 °C 77.0 °F /  25 °C 30.0in /  1015.8hPa WSW 9mph /  14.5km/h 11mph /  17.7km/h 58% 0.000in /  0mm 963.00 W/m2
13:24 95.0 °F /  35 °C 77.0 °F /  25 °C 30.0in /  1015.8hPa WSW 8mph /  12.9km/h 8mph /  12.9km/h 58% 0.000in /  0mm 969.00 W/m2
13:29 94.0 °F /  34.4 °C 78.0 °F /  25.6 °C 30.0in /  1015.8hPa SSW 7mph /  11.3km/h 10mph /  16.1km/h 60% 0.000in /  0mm 958.00 W/m2
13:34 95.0 °F /  35 °C 77.0 °F /  25 °C 30.0in /  1015.8hPa SSW 4mph /  6.4km/h 5mph /  8km/h 58% 0.000in /  0mm 946.00 W/m2
13:39 95.0 °F /  35 °C 78.0 °F /  25.6 °C 30.0in /  1015.8hPa SSW 10mph /  16.1km/h 10mph /  16.1km/h 58% 0.000in /  0mm 944.00 W/m2
13:44 95.0 °F /  35 °C 78.0 °F /  25.6 °C 30.0in /  1015.8hPa SSW 5mph /  8km/h 10mph /  16.1km/h 59% 0.000in /  0mm 935.00 W/m2
13:49 95.0 °F /  35 °C 77.0 °F /  25 °C 30.0in /  1015.8hPa South 7mph /  11.3km/h 7mph /  11.3km/h 57% 0.000in /  0mm 951.00 W/m2
13:54 95.0 °F /  35 °C 77.0 °F /  25 °C 30.0in /  1015.8hPa WSW 6mph /  9.7km/h 8mph /  12.9km/h 57% 0.000in /  0mm 972.00 W/m2
13:59 95.0 °F /  35 °C 77.0 °F /  25 °C 30.0in /  1015.8hPa WSW 6mph /  9.7km/h 6mph /  9.7km/h 56% 0.000in /  0mm 972.00 W/m2
14:04 95.0 °F /  35 °C 77.0 °F /  25 °C 30.0in /  1015.8hPa WSW 7mph /  11.3km/h 10mph /  16.1km/h 56% 0.000in /  0mm 949.00 W/m2
14:09 95.0 °F /  35 °C 77.0 °F /  25 °C 30.0in /  1015.8hPa WSW 7mph /  11.3km/h 7mph /  11.3km/h 56% 0.000in /  0mm 947.00 W/m2
14:14 96.0 °F /  35.6 °C 78.0 °F /  25.6 °C 30.0in /  1015.8hPa WNW 7mph /  11.3km/h 8mph /  12.9km/h 56% 0.000in /  0mm 944.00 W/m2
14:19 96.0 °F /  35.6 °C 78.0 °F /  25.6 °C 30.0in /  1015.8hPa WSW 9mph /  14.5km/h 9mph /  14.5km/h 58% 0.000in /  0mm 947.00 W/m2
14:24 95.0 °F /  35 °C 77.0 °F /  25 °C 30.0in /  1015.8hPa West 10mph /  16.1km/h 10mph /  16.1km/h 55% 0.000in /  0mm 949.00 W/m2
14:29 96.0 °F /  35.6 °C 78.0 °F /  25.6 °C 30.0in /  1015.8hPa WSW 10mph /  16.1km/h 11mph /  17.7km/h 58% 0.000in /  0mm 951.00 W/m2
14:34 96.0 °F /  35.6 °C 78.0 °F /  25.6 °C 30.0in /  1015.8hPa WSW 8mph /  12.9km/h 9mph /  14.5km/h 58% 0.000in /  0mm 979.00 W/m2
14:39 96.0 °F /  35.6 °C 77.0 °F /  25 °C 30.0in /  1015.8hPa West 8mph /  12.9km/h 9mph /  14.5km/h 55% 0.000in /  0mm 979.00 W/m2
14:44 96.0 °F /  35.6 °C 76.0 °F /  24.4 °C 30.0in /  1015.8hPa WSW 9mph /  14.5km/h 9mph /  14.5km/h 55% 0.000in /  0mm 981.00 W/m2
14:49 96.0 °F /  35.6 °C 78.0 °F /  25.6 °C 30.0in /  1015.8hPa SSW 9mph /  14.5km/h 9mph /  14.5km/h 58% 0.000in /  0mm 976.00 W/m2
14:54 96.0 °F /  35.6 °C 79.0 °F /  26.1 °C 30.0in /  1015.8hPa WSW 7mph /  11.3km/h 9mph /  14.5km/h 58% 0.000in /  0mm 939.00 W/m2
14:59 96.0 °F /  35.6 °C 80.0 °F /  26.7 °C 30.0in /  1015.8hPa SW 8mph /  12.9km/h 9mph /  14.5km/h 61% 0.000in /  0mm 921.00 W/m2
15:04 96.0 °F /  35.6 °C 79.0 °F /  26.1 °C 30.0in /  1015.8hPa SSW 11mph /  17.7km/h 11mph /  17.7km/h 58% 0.000in /  0mm 921.00 W/m2
15:09 96.0 °F /  35.6 °C 78.0 °F /  25.6 °C 30.0in /  1015.8hPa SW 8mph /  12.9km/h 8mph /  12.9km/h 56% 0.000in /  0mm 916.00 W/m2
15:14 96.0 °F /  35.6 °C 78.0 °F /  25.6 °C 30.0in /  1015.8hPa South 9mph /  14.5km/h 9mph /  14.5km/h 56% 0.000in /  0mm 896.00 W/m2
15:19 96.0 °F /  35.6 °C 78.0 °F /  25.6 °C 30.0in /  1015.8hPa WSW 10mph /  16.1km/h 10mph /  16.1km/h 56% 0.000in /  0mm 881.00 W/m2
15:24 96.0 °F /  35.6 °C 77.0 °F /  25 °C 30.0in /  1015.8hPa WSW 8mph /  12.9km/h 8mph /  12.9km/h 55% 0.000in /  0mm 932.00 W/m2
15:29 96.0 °F /  35.6 °C 78.0 °F /  25.6 °C 30.0in /  1015.8hPa WSW 10mph /  16.1km/h 10mph /  16.1km/h 56% 0.000in /  0mm 898.00 W/m2
15:34 96.0 °F /  35.6 °C 77.0 °F /  25 °C 30.0in /  1015.8hPa WSW 8mph /  12.9km/h 10mph /  16.1km/h 54% 0.000in /  0mm 872.00 W/m2
15:39 96.0 °F /  35.6 °C 78.0 °F /  25.6 °C 30.0in /  1015.8hPa WSW 8mph /  12.9km/h 9mph /  14.5km/h 56% 0.000in /  0mm 861.00 W/m2
15:44 97.0 °F /  36.1 °C 78.0 °F /  25.6 °C 30.0in /  1015.8hPa WSW 6mph /  9.7km/h 7mph /  11.3km/h 55% 0.000in /  0mm 847.00 W/m2
15:49 97.0 °F /  36.1 °C 79.0 °F /  26.1 °C 30.0in /  1015.8hPa SW 10mph /  16.1km/h 10mph /  16.1km/h 56% 0.000in /  0mm 830.00 W/m2
15:54 96.0 °F /  35.6 °C 77.0 °F /  25 °C 30.0in /  1015.8hPa South 9mph /  14.5km/h 11mph /  17.7km/h 55% 0.000in /  0mm 814.00 W/m2
15:59 97.0 °F /  36.1 °C 78.0 °F /  25.6 °C 30.0in /  1015.8hPa SW 7mph /  11.3km/h 9mph /  14.5km/h 55% 0.000in /  0mm 803.00 W/m2
16:04 97.0 °F /  36.1 °C 77.0 °F /  25 °C 30.0in /  1015.8hPa WSW 8mph /  12.9km/h 8mph /  12.9km/h 54% 0.000in /  0mm 805.00 W/m2
16:09 97.0 °F /  36.1 °C 77.0 °F /  25 °C 30.0in /  1015.8hPa WSW 9mph /  14.5km/h 11mph /  17.7km/h 54% 0.000in /  0mm 803.00 W/m2
16:14 97.0 °F /  36.1 °C 76.0 °F /  24.4 °C 30.0in /  1015.8hPa SW 7mph /  11.3km/h 10mph /  16.1km/h 53% 0.000in /  0mm 842.00 W/m2
16:19 96.0 °F /  35.6 °C 75.0 °F /  23.9 °C 30.0in /  1015.8hPa SW 7mph /  11.3km/h 10mph /  16.1km/h 54% 0.000in /  0mm 250.00 W/m2
16:24 94.0 °F /  34.4 °C 76.0 °F /  24.4 °C 30.0in /  1015.8hPa SSW 8mph /  12.9km/h 9mph /  14.5km/h 55% 0.000in /  0mm 269.00 W/m2
16:29 94.0 °F /  34.4 °C 77.0 °F /  25 °C 30.0in /  1015.8hPa SW 4mph /  6.4km/h 8mph /  12.9km/h 58% 0.000in /  0mm 278.00 W/m2
16:34 94.0 °F /  34.4 °C 77.0 °F /  25 °C 30.0in /  1015.8hPa WSW 10mph /  16.1km/h 10mph /  16.1km/h 58% 0.000in /  0mm 290.00 W/m2
16:39 94.0 °F /  34.4 °C 76.0 °F /  24.4 °C 30.0in /  1015.8hPa West 7mph /  11.3km/h 8mph /  12.9km/h 57% 0.000in /  0mm 278.00 W/m2
16:44 94.0 °F /  34.4 °C 76.0 °F /  24.4 °C 30.0in /  1015.8hPa SW 4mph /  6.4km/h 8mph /  12.9km/h 57% 0.000in /  0mm 234.00 W/m2
16:49 94.0 °F /  34.4 °C 76.0 °F /  24.4 °C 30.0in /  1015.8hPa SW 7mph /  11.3km/h 8mph /  12.9km/h 57% 0.000in /  0mm 276.00 W/m2
16:54 94.0 °F /  34.4 °C 76.0 °F /  24.4 °C 30.0in /  1015.8hPa SW 6mph /  9.7km/h 8mph /  12.9km/h 57% 0.000in /  0mm 302.00 W/m2
16:59 94.0 °F /  34.4 °C 77.0 °F /  25 °C 30.0in /  1015.8hPa West 6mph /  9.7km/h 8mph /  12.9km/h 58% 0.000in /  0mm 341.00 W/m2
17:04 94.0 °F /  34.4 °C 76.0 °F /  24.4 °C 30.0in /  1015.8hPa SW 10mph /  16.1km/h 10mph /  16.1km/h 56% 0.000in /  0mm 707.00 W/m2
17:09 95.0 °F /  35 °C 75.0 °F /  23.9 °C 30.0in /  1015.8hPa WSW 9mph /  14.5km/h 9mph /  14.5km/h 54% 0.000in /  0mm 694.00 W/m2
17:14 94.0 °F /  34.4 °C 75.0 °F /  23.9 °C 30.0in /  1015.8hPa West 9mph /  14.5km/h 9mph /  14.5km/h 55% 0.000in /  0mm 251.00 W/m2
17:19 94.0 °F /  34.4 °C 75.0 °F /  23.9 °C 30.0in /  1015.8hPa WSW 6mph /  9.7km/h 9mph /  14.5km/h 55% 0.000in /  0mm 264.00 W/m2
17:24 94.0 °F /  34.4 °C 76.0 °F /  24.4 °C 30.0in /  1015.8hPa West 8mph /  12.9km/h 8mph /  12.9km/h 56% 0.000in /  0mm 251.00 W/m2
17:29 94.0 °F /  34.4 °C 76.0 °F /  24.4 °C 30.0in /  1015.8hPa NW 6mph /  9.7km/h 10mph /  16.1km/h 56% 0.000in /  0mm 299.00 W/m2
17:34 94.0 °F /  34.4 °C 76.0 °F /  24.4 °C 30.0in /  1015.8hPa North 9mph /  14.5km/h 10mph /  16.1km/h 61% 0.000in /  0mm 190.00 W/m2
17:39 91.0 °F /  32.8 °C 76.0 °F /  24.4 °C 30.0in /  1015.8hPa North 9mph /  14.5km/h 9mph /  14.5km/h 63% 0.000in /  0mm 141.00 W/m2
17:44 90.0 °F /  32.2 °C 76.0 °F /  24.4 °C 30.0in /  1015.8hPa NNE 10mph /  16.1km/h 12mph /  19.3km/h 64% 0.000in /  0mm 123.00 W/m2
17:49 89.0 °F /  31.7 °C 75.0 °F /  23.9 °C 30.0in /  1015.8hPa NNE 7mph /  11.3km/h 12mph /  19.3km/h 64% 0.000in /  0mm 134.00 W/m2
17:54 89.0 °F /  31.7 °C 75.0 °F /  23.9 °C 30.0in /  1015.8hPa North 9mph /  14.5km/h 10mph /  16.1km/h 65% 0.000in /  0mm 156.00 W/m2
17:59 88.0 °F /  31.1 °C 75.0 °F /  23.9 °C 30.0in /  1015.8hPa North 7mph /  11.3km/h 8mph /  12.9km/h 66% 0.000in /  0mm 162.00 W/m2
18:04 88.0 °F /  31.1 °C 75.0 °F /  23.9 °C 30.0in /  1015.8hPa North 4mph /  6.4km/h 6mph /  9.7km/h 66% 0.000in /  0mm 169.00 W/m2
18:09 88.0 °F /  31.1 °C 75.0 °F /  23.9 °C 30.0in /  1015.8hPa North 6mph /  9.7km/h 6mph /  9.7km/h 66% 0.000in /  0mm 204.00 W/m2
18:14 88.0 °F /  31.1 °C 76.0 °F /  24.4 °C 30.0in /  1015.8hPa East 4mph /  6.4km/h 6mph /  9.7km/h 66% 0.000in /  0mm 272.00 W/m2
18:19 88.0 °F /  31.1 °C 75.0 °F /  23.9 °C 30.0in /  1015.8hPa East 7mph /  11.3km/h 7mph /  11.3km/h 65% 0.000in /  0mm 202.00 W/m2
18:24 88.0 °F /  31.1 °C 75.0 °F /  23.9 °C 30.0in /  1015.8hPa ESE 7mph /  11.3km/h 7mph /  11.3km/h 68% 0.000in /  0mm 171.00 W/m2
18:29 87.0 °F /  30.6 °C 75.0 °F /  23.9 °C 30.0in /  1015.8hPa SE 3mph /  4.8km/h 4mph /  6.4km/h 69% 0.000in /  0mm 127.00 W/m2
18:34 87.0 °F /  30.6 °C 76.0 °F /  24.4 °C 30.0in /  1015.8hPa ENE 7mph /  11.3km/h 7mph /  11.3km/h 69% 0.000in /  0mm 250.00 W/m2
18:39 88.0 °F /  31.1 °C 76.0 °F /  24.4 °C 30.0in /  1015.8hPa NE 3mph /  4.8km/h 7mph /  11.3km/h 68% 0.000in /  0mm 325.00 W/m2
18:44 88.0 °F /  31.1 °C 76.0 °F /  24.4 °C 30.0in /  1015.8hPa East 5mph /  8km/h 5mph /  8km/h 67% 0.000in /  0mm 315.00 W/m2
18:49 88.0 °F /  31.1 °C 75.0 °F /  23.9 °C 30.0in /  1015.8hPa East 4mph /  6.4km/h 4mph /  6.4km/h 66% 0.000in /  0mm 299.00 W/m2
18:54 88.0 °F /  31.1 °C 75.0 °F /  23.9 °C 30.0in /  1015.8hPa ESE 5mph /  8km/h 5mph /  8km/h 66% 0.000in /  0mm 276.00 W/m2
18:59 88.0 °F /  31.1 °C 75.0 °F /  23.9 °C 30.0in /  1015.8hPa NE 4mph /  6.4km/h 4mph /  6.4km/h 67% 0.000in /  0mm 255.00 W/m2
19:04 88.0 °F /  31.1 °C 75.0 °F /  23.9 °C 30.0in /  1015.8hPa NE 3mph /  4.8km/h 3mph /  4.8km/h 66% 0.000in /  0mm 251.00 W/m2
19:09 88.0 °F /  31.1 °C 76.0 °F /  24.4 °C 30.0in /  1015.8hPa NNE 1mph /  1.6km/h 2mph /  3.2km/h 66% 0.000in /  0mm 248.00 W/m2
19:14 88.0 °F /  31.1 °C 76.0 °F /  24.4 °C 30.0in /  1015.8hPa NNE 3mph /  4.8km/h 3mph /  4.8km/h 66% 0.000in /  0mm 146.00 W/m2
19:19 88.0 °F /  31.1 °C 75.0 °F /  23.9 °C 30.0in /  1015.8hPa ENE 2mph /  3.2km/h 3mph /  4.8km/h 66% 0.000in /  0mm 120.00 W/m2
19:24 88.0 °F /  31.1 °C 75.0 °F /  23.9 °C 30.0in /  1015.8hPa ENE 3mph /  4.8km/h 3mph /  4.8km/h 66% 0.000in /  0mm 104.00 W/m2
19:29 87.0 °F /  30.6 °C 75.0 °F /  23.9 °C 30.0in /  1015.8hPa ENE 3mph /  4.8km/h 3mph /  4.8km/h 67% 0.000in /  0mm 90.00 W/m2
19:34 87.0 °F /  30.6 °C 75.0 °F /  23.9 °C 30.0in /  1015.8hPa ENE 3mph /  4.8km/h 3mph /  4.8km/h 67% 0.000in /  0mm 76.00 W/m2
19:39 87.0 °F /  30.6 °C 75.0 °F /  23.9 °C 30.0in /  1015.8hPa NNE 3mph /  4.8km/h 3mph /  4.8km/h 67% 0.000in /  0mm 44.00 W/m2
19:44 87.0 °F /  30.6 °C 75.0 °F /  23.9 °C 30.0in /  1015.8hPa ENE 3mph /  4.8km/h 3mph /  4.8km/h 68% 0.000in /  0mm 28.00 W/m2
19:49 87.0 °F /  30.6 °C 75.0 °F /  23.9 °C 30.0in /  1015.8hPa East 3mph /  4.8km/h 3mph /  4.8km/h 68% 0.000in /  0mm 21.00 W/m2
19:54 87.0 °F /  30.6 °C 75.0 °F /  23.9 °C 30.0in /  1015.8hPa ESE 2mph /  3.2km/h 3mph /  4.8km/h 69% 0.000in /  0mm 16.00 W/m2
19:59 87.0 °F /  30.6 °C 75.0 °F /  23.9 °C 30.0in /  1015.8hPa ESE 4mph /  6.4km/h 4mph /  6.4km/h 69% 0.000in /  0mm 12.00 W/m2
20:04 87.0 °F /  30.6 °C 75.0 °F /  23.9 °C 30.0in /  1015.8hPa SE 3mph /  4.8km/h 4mph /  6.4km/h 69% 0.000in /  0mm 9.00 W/m2
20:09 87.0 °F /  30.6 °C 75.0 °F /  23.9 °C 30.0in /  1015.8hPa ESE 3mph /  4.8km/h 3mph /  4.8km/h 69% 0.000in /  0mm 5.00 W/m2
20:14 86.0 °F /  30 °C 75.0 °F /  23.9 °C 30.0in /  1015.8hPa ESE 4mph /  6.4km/h 4mph /  6.4km/h 68% 0.000in /  0mm 0.00 W/m2
20:19 86.0 °F /  30 °C 75.0 °F /  23.9 °C 30.0in /  1015.8hPa SE 2mph /  3.2km/h 2mph /  3.2km/h 69% 0.000in /  0mm 0.00 W/m2
20:24 86.0 °F /  30 °C 75.0 °F /  23.9 °C 30.0in /  1015.8hPa ESE 4mph /  6.4km/h 4mph /  6.4km/h 69% 0.000in /  0mm 0.00 W/m2
20:29 86.0 °F /  30 °C 75.0 °F /  23.9 °C 30.0in /  1015.8hPa SE 4mph /  6.4km/h 4mph /  6.4km/h 69% 0.000in /  0mm 0.00 W/m2
20:34 86.0 °F /  30 °C 75.0 °F /  23.9 °C 30.0in /  1015.8hPa SE 2mph /  3.2km/h 2mph /  3.2km/h 69% 0.000in /  0mm 0.00 W/m2
20:39 86.0 °F /  30 °C 75.0 °F /  23.9 °C 30.0in /  1015.8hPa SE 3mph /  4.8km/h 3mph /  4.8km/h 70% 0.000in /  0mm 0.00 W/m2
20:44 86.0 °F /  30 °C 75.0 °F /  23.9 °C 30.0in /  1015.8hPa SE 4mph /  6.4km/h 4mph /  6.4km/h 70% 0.000in /  0mm 0.00 W/m2
20:49 86.0 °F /  30 °C 75.0 °F /  23.9 °C 30.0in /  1015.8hPa SSE 5mph /  8km/h 6mph /  9.7km/h 70% 0.000in /  0mm 0.00 W/m2
20:54 86.0 °F /  30 °C 75.0 °F /  23.9 °C 30.0in /  1015.8hPa SSE 6mph /  9.7km/h 6mph /  9.7km/h 71% 0.000in /  0mm 0.00 W/m2
20:59 86.0 °F /  30 °C 75.0 °F /  23.9 °C 30.0in /  1015.8hPa SE 8mph /  12.9km/h 8mph /  12.9km/h 70% 0.000in /  0mm 0.00 W/m2
21:04 86.0 °F /  30 °C 75.0 °F /  23.9 °C 30.0in /  1015.8hPa SE 10mph /  16.1km/h 11mph /  17.7km/h 70% 0.000in /  0mm 0.00 W/m2
21:09 86.0 °F /  30 °C 75.0 °F /  23.9 °C 30.0in /  1015.8hPa SE 9mph /  14.5km/h 11mph /  17.7km/h 70% 0.000in /  0mm 0.00 W/m2
21:14 86.0 °F /  30 °C 75.0 °F /  23.9 °C 30.0in /  1015.8hPa SE 13mph /  20.9km/h 13mph /  20.9km/h 70% 0.000in /  0mm 0.00 W/m2
21:19 86.0 °F /  30 °C 75.0 °F /  23.9 °C 30.0in /  1015.8hPa SE 8mph /  12.9km/h 9mph /  14.5km/h 70% 0.000in /  0mm 0.00 W/m2
21:24 85.0 °F /  29.4 °C 75.0 °F /  23.9 °C 30.0in /  1015.8hPa SSE 10mph /  16.1km/h 10mph /  16.1km/h 71% 0.000in /  0mm 0.00 W/m2
21:29 85.0 °F /  29.4 °C 75.0 °F /  23.9 °C 30.0in /  1015.8hPa SE 5mph /  8km/h 6mph /  9.7km/h 71% 0.000in /  0mm 0.00 W/m2
21:34 85.0 °F /  29.4 °C 75.0 °F /  23.9 °C 30.0in /  1015.8hPa SE 5mph /  8km/h 7mph /  11.3km/h 71% 0.000in /  0mm 0.00 W/m2
21:39 85.0 °F /  29.4 °C 75.0 °F /  23.9 °C 30.0in /  1015.8hPa SE 5mph /  8km/h 7mph /  11.3km/h 72% 0.000in /  0mm 0.00 W/m2
21:44 84.0 °F /  28.9 °C 74.0 °F /  23.3 °C 30.0in /  1015.8hPa SE 5mph /  8km/h 5mph /  8km/h 72% 0.000in /  0mm 0.00 W/m2
21:49 84.0 °F /  28.9 °C 74.0 °F /  23.3 °C 30.0in /  1015.8hPa ESE 4mph /  6.4km/h 6mph /  9.7km/h 72% 0.000in /  0mm 0.00 W/m2
21:54 84.0 °F /  28.9 °C 74.0 °F /  23.3 °C 30.0in /  1015.8hPa SE 3mph /  4.8km/h 6mph /  9.7km/h 72% 0.000in /  0mm 0.00 W/m2
21:59 84.0 °F /  28.9 °C 75.0 °F /  23.9 °C 30.0in /  1015.8hPa SSE 4mph /  6.4km/h 5mph /  8km/h 73% 0.000in /  0mm 0.00 W/m2
22:04 84.0 °F /  28.9 °C 74.0 °F /  23.3 °C 30.0in /  1015.8hPa SSE 4mph /  6.4km/h 5mph /  8km/h 73% 0.000in /  0mm 0.00 W/m2
22:09 84.0 °F /  28.9 °C 74.0 °F /  23.3 °C 30.0in /  1015.8hPa SSE 4mph /  6.4km/h 5mph /  8km/h 74% 0.000in /  0mm 0.00 W/m2
22:14 83.0 °F /  28.3 °C 74.0 °F /  23.3 °C 30.0in /  1015.8hPa SSE 4mph /  6.4km/h 5mph /  8km/h 74% 0.000in /  0mm 0.00 W/m2
22:19 83.0 °F /  28.3 °C 74.0 °F /  23.3 °C 30.0in /  1015.8hPa SSE 5mph /  8km/h 5mph /  8km/h 75% 0.000in /  0mm 0.00 W/m2
22:24 83.0 °F /  28.3 °C 74.0 °F /  23.3 °C 30.0in /  1015.8hPa South 6mph /  9.7km/h 6mph /  9.7km/h 75% 0.000in /  0mm 0.00 W/m2
22:29 83.0 °F /  28.3 °C 74.0 °F /  23.3 °C 30.0in /  1015.8hPa SSE 5mph /  8km/h 6mph /  9.7km/h 74% 0.000in /  0mm 0.00 W/m2
22:34 83.0 °F /  28.3 °C 74.0 °F /  23.3 °C 30.0in /  1015.8hPa South 6mph /  9.7km/h 6mph /  9.7km/h 74% 0.000in /  0mm 0.00 W/m2
22:39 83.0 °F /  28.3 °C 73.0 °F /  22.8 °C 30.0in /  1015.8hPa South 6mph /  9.7km/h 6mph /  9.7km/h 73% 0.000in /  0mm 0.00 W/m2
22:44 83.0 °F /  28.3 °C 73.0 °F /  22.8 °C 30.0in /  1015.8hPa SSE 5mph /  8km/h 5mph /  8km/h 73% 0.000in /  0mm 0.00 W/m2
22:49 83.0 °F /  28.3 °C 73.0 °F /  22.8 °C 30.0in /  1015.8hPa SSE 4mph /  6.4km/h 5mph /  8km/h 73% 0.000in /  0mm 0.00 W/m2
22:54 83.0 °F /  28.3 °C 73.0 °F /  22.8 °C 30.0in /  1015.8hPa SSE 5mph /  8km/h 6mph /  9.7km/h 73% 0.000in /  0mm 0.00 W/m2
22:59 83.0 °F /  28.3 °C 73.0 °F /  22.8 °C 30.0in /  1015.8hPa South 4mph /  6.4km/h 6mph /  9.7km/h 73% 0.000in /  0mm 0.00 W/m2
23:04 83.0 °F /  28.3 °C 73.0 °F /  22.8 °C 30.0in /  1015.8hPa SSE 4mph /  6.4km/h 4mph /  6.4km/h 73% 0.000in /  0mm 0.00 W/m2
23:09 82.0 °F /  27.8 °C 73.0 °F /  22.8 °C 30.0in /  1015.8hPa South 4mph /  6.4km/h 5mph /  8km/h 73% 0.000in /  0mm 0.00 W/m2
23:14 82.0 °F /  27.8 °C 73.0 °F /  22.8 °C 30.0in /  1015.8hPa South 5mph /  8km/h 5mph /  8km/h 73% 0.000in /  0mm 0.00 W/m2
23:19 82.0 °F /  27.8 °C 73.0 °F /  22.8 °C 30.0in /  1015.8hPa South 2mph /  3.2km/h 3mph /  4.8km/h 74% 0.000in /  0mm 0.00 W/m2
23:24 82.0 °F /  27.8 °C 73.0 °F /  22.8 °C 30.0in /  1015.8hPa South 4mph /  6.4km/h 4mph /  6.4km/h 74% 0.000in /  0mm 0.00 W/m2
23:29 82.0 °F /  27.8 °C 72.0 °F /  22.2 °C 30.0in /  1015.8hPa South 2mph /  3.2km/h 4mph /  6.4km/h 73% 0.000in /  0mm 0.00 W/m2
23:34 82.0 °F /  27.8 °C 72.0 °F /  22.2 °C 30.0in /  1015.8hPa South 6mph /  9.7km/h 6mph /  9.7km/h 73% 0.000in /  0mm 0.00 W/m2
23:39 82.0 °F /  27.8 °C 72.0 °F /  22.2 °C 30.0in /  1015.8hPa South 4mph /  6.4km/h 5mph /  8km/h 72% 0.000in /  0mm 0.00 W/m2
23:44 82.0 °F /  27.8 °C 72.0 °F /  22.2 °C 30.0in /  1015.8hPa South 5mph /  8km/h 5mph /  8km/h 72% 0.000in /  0mm 0.00 W/m2
23:49 82.0 °F /  27.8 °C 72.0 °F /  22.2 °C 30.0in /  1015.8hPa SSE 6mph /  9.7km/h 6mph /  9.7km/h 73% 0.000in /  0mm 0.00 W/m2
23:54 82.0 °F /  27.8 °C 72.0 °F /  22.2 °C 30.0in /  1015.8hPa SSE 4mph /  6.4km/h 6mph /  9.7km/h 73% 0.000in /  0mm 0.00 W/m2
23:59 82.0 °F /  27.8 °C 72.0 °F /  22.2 °C 30.0in /  1015.8hPa SSE 4mph /  6.4km/h 4mph /  6.4km/h 72% 0.000in /  0mm 0.00 W/m2
Villages of Bridgestone, Spring, TX USA
Compliments of Weather Underground - 4 mb